createdAt,value
2022-12-25T00:01:10.864Z,48.70
2022-12-25T00:06:20.085Z,47.23
2022-12-25T00:11:26.576Z,47.03
2022-12-25T00:16:33.260Z,47.47
2022-12-25T00:21:40.225Z,45.48
2022-12-25T00:31:52.930Z,45.53
2022-12-25T00:37:00.635Z,45.03
2022-12-25T00:42:20.094Z,45.00
2022-12-25T00:47:27.332Z,44.87
2022-12-25T00:52:34.941Z,46.27
2022-12-25T00:57:41.994Z,44.87
2022-12-25T01:02:48.498Z,44.17
2022-12-25T01:07:56.308Z,44.97
2022-12-25T01:13:02.649Z,44.53
2022-12-25T01:18:12.778Z,44.55
2022-12-25T01:23:19.164Z,44.47
2022-12-25T01:28:26.132Z,43.87
2022-12-25T01:33:33.167Z,43.13
2022-12-25T01:38:39.507Z,43.83
2022-12-25T01:44:09.692Z,44.30
2022-12-25T01:49:25.295Z,43.83
2022-12-25T01:54:40.112Z,44.10
2022-12-25T01:59:48.090Z,44.53
2022-12-25T02:05:01.867Z,45.07
2022-12-25T02:10:11.533Z,46.33
2022-12-25T02:15:22.798Z,45.27
2022-12-25T02:20:48.604Z,46.00
2022-12-25T02:26:33.125Z,44.87
2022-12-25T02:31:50.463Z,44.37
2022-12-25T02:37:16.266Z,44.70
2022-12-25T02:42:55.827Z,45.20
2022-12-25T02:48:21.078Z,44.50
2022-12-25T02:53:47.026Z,45.08
2022-12-25T02:59:12.453Z,44.07
2022-12-25T03:04:41.457Z,43.48
2022-12-25T03:10:20.900Z,43.37
2022-12-25T03:15:46.205Z,43.77
2022-12-25T03:21:12.700Z,43.70
2022-12-25T03:26:37.868Z,44.13
2022-12-25T03:31:54.596Z,43.80
2022-12-25T03:37:45.329Z,43.65
2022-12-25T03:43:14.711Z,44.63
2022-12-25T03:48:40.115Z,44.33
2022-12-25T03:54:17.298Z,43.07
2022-12-25T03:59:42.979Z,43.98
2022-12-25T04:05:07.712Z,42.97
2022-12-25T04:10:31.492Z,43.60
2022-12-25T04:15:55.231Z,43.83
2022-12-25T04:21:10.151Z,43.03
2022-12-25T04:26:34.532Z,43.60
2022-12-25T04:31:59.702Z,43.20
2022-12-25T04:37:05.765Z,44.20
2022-12-25T04:42:11.924Z,44.23
2022-12-25T04:47:20.333Z,44.18
2022-12-25T04:52:27.002Z,45.07
2022-12-25T04:57:34.776Z,42.27
2022-12-25T05:02:41.087Z,44.13
2022-12-25T05:07:48.067Z,44.58
2022-12-25T05:12:54.561Z,43.87
2022-12-25T05:18:01.326Z,44.08
2022-12-25T05:23:08.779Z,48.45
2022-12-25T05:28:15.683Z,49.27
2022-12-25T05:33:22.273Z,47.97
2022-12-25T05:38:28.708Z,46.58
2022-12-25T05:43:35.687Z,43.63
2022-12-25T05:48:42.618Z,43.17
2022-12-25T05:58:55.700Z,42.53
2022-12-25T06:04:08.414Z,43.20
2022-12-25T06:09:13.796Z,42.73
2022-12-25T06:14:20.782Z,46.17
2022-12-25T06:19:27.501Z,45.95
2022-12-25T06:24:34.268Z,49.88
2022-12-25T06:29:41.849Z,44.30
2022-12-25T06:34:49.994Z,43.50
2022-12-25T06:39:57.137Z,42.57
2022-12-25T06:45:03.958Z,30.70
2022-12-25T06:50:11.368Z,30.45
2022-12-25T06:55:18.237Z,42.97
2022-12-25T07:00:25.177Z,43.77
2022-12-25T07:05:32.238Z,44.47
2022-12-25T07:10:39.914Z,43.00
2022-12-25T07:15:48.353Z,42.20
2022-12-25T07:20:55.909Z,41.95
2022-12-25T07:26:04.726Z,43.92
2022-12-25T07:31:17.152Z,46.47
2022-12-25T07:36:24.089Z,46.87
2022-12-25T07:41:31.861Z,43.52
2022-12-25T07:46:38.182Z,62.73
2022-12-25T07:51:44.717Z,66.53
2022-12-25T07:56:57.687Z,53.10
2022-12-25T08:02:04.481Z,52.97
2022-12-25T08:07:12.348Z,55.73
2022-12-25T08:12:19.926Z,55.33
2022-12-25T08:17:27.824Z,53.33
2022-12-25T08:27:39.889Z,52.70
2022-12-25T08:37:51.541Z,53.47
2022-12-25T08:48:07.338Z,58.67
2022-12-25T08:53:15.782Z,65.57
2022-12-25T08:58:22.576Z,62.60
2022-12-25T09:03:31.457Z,61.28
2022-12-25T09:08:45.912Z,59.80
2022-12-25T09:13:48.216Z,57.07
2022-12-25T09:18:56.582Z,56.17
2022-12-25T09:24:06.842Z,60.00
2022-12-25T09:29:14.815Z,57.40
2022-12-25T09:34:22.310Z,55.77
2022-12-25T09:39:29.351Z,55.37
2022-12-25T09:44:39.427Z,59.30
2022-12-25T09:50:11.351Z,62.00
2022-12-25T09:55:23.007Z,62.00
2022-12-25T10:00:34.216Z,61.40
2022-12-25T10:06:05.527Z,64.17
2022-12-25T10:11:39.658Z,63.17
2022-12-25T10:17:03.348Z,63.27
2022-12-25T10:22:32.670Z,64.14
2022-12-25T10:27:44.767Z,63.80
2022-12-25T10:32:52.885Z,62.53
2022-12-25T10:38:10.051Z,65.33
2022-12-25T10:48:31.854Z,60.17
2022-12-25T10:53:42.856Z,70.22
2022-12-25T10:58:49.413Z,74.70
2022-12-25T11:03:56.008Z,77.50
2022-12-25T11:09:04.318Z,69.85
2022-12-25T11:14:17.363Z,56.50
2022-12-25T11:19:32.843Z,58.80
2022-12-25T11:24:39.297Z,57.20
2022-12-25T11:29:50.381Z,58.73
2022-12-25T11:34:59.211Z,56.47
2022-12-25T11:40:07.024Z,54.80
2022-12-25T11:45:23.656Z,52.63
2022-12-25T11:50:41.235Z,52.83
2022-12-25T11:56:01.437Z,52.10
2022-12-25T12:01:29.587Z,53.33
2022-12-25T12:07:00.014Z,51.92
2022-12-25T12:12:40.664Z,51.40
2022-12-25T12:17:45.831Z,44.87
2022-12-25T12:22:53.071Z,48.68
2022-12-25T12:28:05.836Z,52.23
2022-12-25T12:33:19.726Z,48.80
2022-12-25T12:38:27.589Z,45.00
2022-12-25T12:44:04.434Z,45.08
2022-12-25T12:49:29.285Z,44.67
2022-12-25T12:54:38.926Z,44.43
2022-12-25T12:59:47.109Z,45.10
2022-12-25T13:05:21.113Z,45.37
2022-12-25T13:10:41.569Z,46.20
2022-12-25T13:15:51.090Z,45.77
2022-12-25T13:21:02.279Z,46.07
2022-12-25T13:26:19.109Z,46.17
2022-12-25T13:31:30.440Z,46.83
2022-12-25T13:36:40.447Z,49.20
2022-12-25T13:42:10.593Z,46.40
2022-12-25T13:47:39.020Z,45.17
2022-12-25T13:52:45.784Z,45.50
2022-12-25T13:58:02.495Z,45.25
2022-12-25T14:03:14.552Z,45.27
2022-12-25T14:08:25.047Z,44.77
2022-12-25T14:13:36.958Z,44.30
2022-12-25T14:18:56.502Z,44.40
2022-12-25T14:24:03.443Z,44.77
2022-12-25T14:34:25.628Z,46.27
2022-12-25T14:39:36.962Z,46.58
2022-12-25T14:44:44.165Z,46.73
2022-12-25T14:49:51.581Z,45.87
2022-12-25T14:55:04.909Z,47.17
2022-12-25T15:00:32.082Z,49.20
2022-12-25T15:05:42.796Z,49.83
2022-12-25T15:11:00.605Z,50.93
2022-12-25T15:16:22.544Z,47.67
2022-12-25T15:21:32.779Z,45.77
2022-12-25T15:26:39.002Z,47.40
2022-12-25T15:31:45.580Z,45.55
2022-12-25T15:36:53.243Z,45.83
2022-12-25T15:42:12.795Z,48.33
2022-12-25T15:47:21.134Z,46.73
2022-12-25T15:52:27.348Z,47.15
2022-12-25T15:57:38.955Z,46.00
2022-12-25T16:02:45.703Z,47.03
2022-12-25T16:07:52.496Z,46.33
2022-12-25T16:12:58.808Z,48.45
2022-12-25T16:18:06.225Z,45.40
2022-12-25T16:28:19.047Z,43.63
2022-12-25T16:33:26.898Z,44.40
2022-12-25T16:38:34.618Z,44.67
2022-12-25T16:43:41.524Z,45.17
2022-12-25T16:48:49.290Z,45.00
2022-12-25T16:53:57.756Z,45.60
2022-12-25T16:59:04.084Z,45.93
2022-12-25T17:04:11.272Z,45.35
2022-12-25T17:09:18.069Z,45.80
2022-12-25T17:14:25.773Z,46.60
2022-12-25T17:19:33.470Z,44.88
2022-12-25T17:24:42.055Z,46.30
2022-12-25T17:29:50.693Z,45.07
2022-12-25T17:34:57.621Z,45.47
2022-12-25T17:40:05.192Z,44.63
2022-12-25T17:45:13.091Z,45.27
2022-12-25T17:50:20.643Z,45.12
2022-12-25T17:55:28.610Z,44.53
2022-12-25T18:00:35.192Z,45.23
2022-12-25T18:05:42.781Z,46.00
2022-12-25T18:10:48.913Z,46.27
2022-12-25T18:15:56.708Z,45.17
2022-12-25T18:21:03.945Z,45.03
2022-12-25T18:31:26.619Z,44.23
2022-12-25T18:36:34.989Z,45.50
2022-12-25T18:41:43.801Z,45.20
2022-12-25T18:46:51.732Z,45.80
2022-12-25T18:52:50.080Z,46.07
2022-12-25T18:57:07.442Z,46.47
2022-12-25T19:02:17.406Z,45.20
2022-12-25T19:07:24.918Z,44.37
2022-12-25T19:12:33.391Z,44.03
2022-12-25T19:17:40.682Z,43.93
2022-12-25T19:22:48.172Z,44.27
2022-12-25T19:27:54.887Z,44.20
2022-12-25T19:33:11.051Z,44.37
2022-12-25T19:38:15.430Z,44.63
2022-12-25T19:43:22.907Z,45.13
2022-12-25T19:48:32.179Z,46.42
2022-12-25T19:53:40.574Z,44.50
2022-12-25T19:58:48.401Z,44.50
2022-12-25T20:03:56.693Z,43.60
2022-12-25T20:09:10.458Z,45.10
2022-12-25T20:14:18.638Z,44.33
2022-12-25T20:19:25.549Z,44.68
2022-12-25T20:24:33.990Z,44.77
2022-12-25T20:29:41.213Z,44.67
2022-12-25T20:34:48.459Z,45.63
2022-12-25T20:39:55.839Z,47.53
2022-12-25T20:45:06.850Z,50.37
2022-12-25T20:50:15.713Z,51.03
2022-12-25T20:55:23.201Z,48.33
2022-12-25T21:05:41.240Z,48.60
2022-12-25T21:10:52.044Z,52.50
2022-12-25T21:16:00.949Z,51.20
2022-12-25T21:21:09.859Z,48.43
2022-12-25T21:26:30.241Z,51.70
2022-12-25T21:31:56.139Z,47.03
2022-12-25T21:37:03.432Z,50.23
2022-12-25T21:42:11.094Z,48.43
2022-12-25T21:47:18.920Z,47.70
2022-12-25T21:52:25.842Z,45.26
2022-12-25T21:57:33.603Z,44.33
2022-12-25T22:02:41.436Z,48.40
2022-12-25T22:07:48.607Z,48.07
2022-12-25T22:13:14.340Z,49.20
2022-12-25T22:18:39.534Z,49.53
2022-12-25T22:23:46.626Z,47.93
2022-12-25T22:28:53.378Z,46.97
2022-12-25T22:34:01.816Z,46.13
2022-12-25T22:39:10.319Z,44.17
2022-12-25T22:44:18.424Z,44.10
2022-12-25T22:49:27.276Z,44.70
2022-12-25T22:54:36.453Z,44.23
2022-12-25T22:59:44.178Z,44.90
2022-12-25T23:09:57.083Z,44.03
2022-12-25T23:15:04.831Z,44.97
2022-12-25T23:20:33.637Z,49.73
2022-12-25T23:26:00.270Z,49.98
2022-12-25T23:31:09.061Z,48.23
2022-12-25T23:36:16.015Z,49.43
2022-12-25T23:41:22.685Z,47.30
2022-12-25T23:46:30.932Z,46.30
2022-12-25T23:51:42.723Z,46.68
2022-12-25T23:56:50.039Z,43.93
